Time;durP1;ratioP1;P1;durP2;ratioP2;P2;SDS_P1;SDS_P2;PMS_P1;PMS_P2;Temp;Humidity;BMP_temperature;BMP_pressure;BME280_temperature;BME280_humidity;BME280_pressure;Samples;Min_cycle;Max_cycle;Signal;HPM_P1;HPM_P2
2023/03/29 00:00:24;;;;;;;48.58;27.58;;;0.20;57.40;;;;;;4729483;29;114630;-84
2023/03/29 00:02:55;;;;;;;46.03;25.67;;;0.10;57.50;;;;;;4726617;29;115345;-83
2023/03/29 00:05:25;;;;;;;44.73;26.57;;;0.10;57.70;;;;;;4728643;29;116181;-83
2023/03/29 00:07:53;;;;;;;42.45;24.80;;;0.10;57.50;;;;;;4728310;29;114883;-84
2023/03/29 00:10:26;;;;;;;42.88;24.52;;;0.10;57.60;;;;;;4727021;29;116363;-83
2023/03/29 00:12:53;;;;;;;45.28;25.70;;;0.10;57.70;;;;;;4722099;29;115675;-84
2023/03/29 00:15:20;;;;;;;41.78;25.20;;;0.00;57.70;;;;;;4719912;29;114724;-83
2023/03/29 00:17:53;;;;;;;49.25;25.02;;;0.00;57.70;;;;;;4736569;29;115907;-84
2023/03/29 00:20:21;;;;;;;50.03;26.85;;;0.00;57.80;;;;;;4742403;29;114516;-83
2023/03/29 00:22:49;;;;;;;49.72;25.92;;;0.00;57.70;;;;;;4746683;29;114539;-82
2023/03/29 00:25:16;;;;;;;56.20;25.52;;;0.00;57.40;;;;;;4718351;29;115242;-82
2023/03/29 00:27:44;;;;;;;63.00;27.98;;;-0.10;57.20;;;;;;4733642;29;115000;-82
2023/03/29 00:30:12;;;;;;;77.50;30.98;;;-0.10;56.90;;;;;;4719604;29;114526;-82
2023/03/29 00:32:39;;;;;;;63.55;27.42;;;-0.20;56.90;;;;;;4733895;29;115341;-82
2023/03/29 00:35:07;;;;;;;63.35;27.88;;;-0.30;56.80;;;;;;4695949;29;114874;-82
2023/03/29 00:37:35;;;;;;;61.88;29.33;;;-0.30;57.00;;;;;;4723832;29;114721;-83
2023/03/29 00:40:09;;;;;;;63.13;29.40;;;-0.30;57.20;;;;;;4709273;29;114850;-82
2023/03/29 00:42:36;;;;;;;70.20;31.67;;;-0.30;57.10;;;;;;4733827;29;115280;-82
2023/03/29 00:45:22;;;;;;;66.32;29.27;;;-0.40;57.00;;;;;;4710159;29;115088;-83
2023/03/29 00:47:55;;;;;;;62.72;28.88;;;-0.30;57.20;;;;;;4742419;29;114623;-83
2023/03/29 00:50:32;;;;;;;59.17;27.27;;;-0.40;57.10;;;;;;4740881;29;114568;-82
2023/03/29 00:53:30;;;;;;;69.35;30.33;;;-0.40;57.10;;;;;;4739231;29;115508;-83
2023/03/29 00:56:12;;;;;;;72.28;31.13;;;-0.40;57.00;;;;;;4724607;29;114890;-82
2023/03/29 00:59:12;;;;;;;67.03;29.48;;;-0.60;56.90;;;;;;4725950;29;114685;-83
2023/03/29 01:02:02;;;;;;;62.97;29.30;;;-0.70;57.10;;;;;;4695232;29;114815;-82
2023/03/29 01:04:41;;;;;;;64.43;27.17;;;-0.70;57.30;;;;;;4723933;29;115256;-83
2023/03/29 01:07:29;;;;;;;54.33;22.77;;;-0.70;57.40;;;;;;4739546;29;114642;-82
2023/03/29 01:10:12;;;;;;;46.28;22.58;;;-0.70;57.50;;;;;;4725786;29;114911;-82
2023/03/29 01:12:52;;;;;;;55.70;25.23;;;-0.70;57.30;;;;;;4738227;29;114944;-83
2023/03/29 01:15:24;;;;;;;54.75;25.27;;;-0.70;57.10;;;;;;4724775;29;115608;-83
2023/03/29 01:17:54;;;;;;;48.63;21.23;;;-0.80;56.90;;;;;;4738267;29;114883;-83
2023/03/29 01:20:54;;;;;;;48.25;22.90;;;-0.80;57.20;;;;;;4725744;29;114624;-83
2023/03/29 01:23:42;;;;;;;50.22;22.90;;;-0.80;57.30;;;;;;4728032;29;114834;-83
2023/03/29 01:26:23;;;;;;;48.85;21.88;;;-0.90;57.20;;;;;;4741292;29;115249;-83
2023/03/29 01:29:05;;;;;;;52.38;22.80;;;-0.90;57.40;;;;;;4706914;29;115221;-83
2023/03/29 01:31:45;;;;;;;50.22;22.77;;;-0.90;57.40;;;;;;4694290;29;114585;-83
2023/03/29 01:34:30;;;;;;;42.97;21.30;;;-0.90;57.40;;;;;;4727538;29;114527;-82
2023/03/29 01:37:20;;;;;;;47.42;20.00;;;-0.90;57.40;;;;;;4697163;29;118733;-82
2023/03/29 01:39:47;;;;;;;34.63;18.40;;;-0.90;57.60;;;;;;4742388;29;115920;-82
2023/03/29 01:42:52;;;;;;;29.75;16.40;;;-0.90;57.40;;;;;;4723888;29;117700;-82
2023/03/29 01:45:50;;;;;;;27.30;14.80;;;-0.80;56.90;;;;;;4690798;29;115073;-81
2023/03/29 01:48:27;;;;;;;25.88;13.82;;;-0.90;56.90;;;;;;4719966;29;115171;-82
2023/03/29 01:51:06;;;;;;;21.63;13.38;;;-0.90;57.00;;;;;;4725956;29;114763;-82
2023/03/29 01:54:04;;;;;;;19.48;11.55;;;-0.90;57.00;;;;;;4728983;29;114528;-82
2023/03/29 01:56:35;;;;;;;24.05;11.98;;;-0.90;56.90;;;;;;4740412;29;114491;-81
2023/03/29 01:59:07;;;;;;;20.85;11.00;;;-0.90;57.00;;;;;;4740381;29;115582;-82
2023/03/29 02:01:42;;;;;;;22.42;10.95;;;-0.90;56.80;;;;;;4694211;29;115265;-81
2023/03/29 02:04:12;;;;;;;23.85;10.32;;;-0.90;56.80;;;;;;4716284;29;114657;-82
2023/03/29 02:06:41;;;;;;;18.67;9.85;;;-0.90;56.70;;;;;;4693592;29;114879;-82
2023/03/29 02:09:09;;;;;;;18.88;10.05;;;-0.90;56.70;;;;;;4719984;29;117088;-83
2023/03/29 02:11:37;;;;;;;21.38;10.52;;;-1.00;56.70;;;;;;4691859;29;114732;-82
2023/03/29 02:14:06;;;;;;;18.45;10.95;;;-1.00;56.50;;;;;;4717749;29;114535;-82
2023/03/29 02:16:37;;;;;;;23.23;10.45;;;-1.00;56.60;;;;;;4743458;29;114956;-82
2023/03/29 02:19:06;;;;;;;18.65;10.25;;;-1.00;56.60;;;;;;4728998;29;115914;-83
2023/03/29 02:22:00;;;;;;;19.55;10.45;;;-1.00;56.70;;;;;;4725500;29;114890;-83
2023/03/29 02:24:29;;;;;;;21.05;10.02;;;-1.00;56.60;;;;;;4697431;29;114883;-83
2023/03/29 02:26:58;;;;;;;19.73;10.55;;;-1.00;56.60;;;;;;4744238;29;114927;-82
2023/03/29 02:29:26;;;;;;;17.67;9.65;;;-1.00;56.50;;;;;;4727186;29;114630;-82
2023/03/29 02:32:07;;;;;;;23.65;11.27;;;-1.00;56.30;;;;;;4716789;29;114803;-80
2023/03/29 02:34:39;;;;;;;21.08;11.13;;;-1.00;56.20;;;;;;4712439;29;114955;-82
2023/03/29 02:37:14;;;;;;;21.92;11.30;;;-1.10;56.20;;;;;;4710632;29;114674;-83
2023/03/29 02:39:41;;;;;;;19.90;10.60;;;-1.10;56.30;;;;;;4697720;29;115350;-82
2023/03/29 02:42:09;;;;;;;24.88;11.18;;;-1.10;56.30;;;;;;4711777;29;114801;-83
2023/03/29 02:44:38;;;;;;;22.23;10.43;;;-1.10;56.20;;;;;;4709918;29;114685;-82
2023/03/29 02:47:22;;;;;;;25.00;11.18;;;-1.10;56.20;;;;;;4708189;29;114699;-82
2023/03/29 02:49:49;;;;;;;21.40;12.45;;;-1.10;56.20;;;;;;4695311;29;114581;-82
2023/03/29 02:52:21;;;;;;;23.30;12.82;;;-1.10;56.20;;;;;;4738146;29;115225;-82
2023/03/29 02:54:53;;;;;;;26.45;12.93;;;-1.20;56.30;;;;;;4708904;29;114651;-82
2023/03/29 02:57:27;;;;;;;28.65;13.52;;;-1.20;56.30;;;;;;4695398;29;116400;-82
2023/03/29 02:59:55;;;;;;;27.40;14.00;;;-1.10;56.20;;;;;;4724504;29;115199;-82
2023/03/29 03:02:26;;;;;;;31.38;14.43;;;-1.20;56.20;;;;;;4723444;29;115152;-82
2023/03/29 03:04:56;;;;;;;27.27;13.27;;;-1.20;56.10;;;;;;4712612;29;115593;-82
2023/03/29 03:07:23;;;;;;;28.30;13.70;;;-1.20;56.00;;;;;;4724383;29;116382;-82
2023/03/29 03:09:52;;;;;;;23.83;12.48;;;-1.20;56.10;;;;;;4724860;29;115836;-83
2023/03/29 03:12:20;;;;;;;21.85;10.95;;;-1.20;56.10;;;;;;4723903;29;115306;-82
2023/03/29 03:14:48;;;;;;;19.00;9.95;;;-1.30;56.00;;;;;;4724714;29;114710;-82
2023/03/29 03:17:17;;;;;;;16.75;9.57;;;-1.30;56.00;;;;;;4727530;29;114629;-83
2023/03/29 03:19:46;;;;;;;18.33;9.25;;;-1.30;55.90;;;;;;4739998;29;115408;-83
2023/03/29 03:22:14;;;;;;;15.88;8.40;;;-1.30;55.70;;;;;;4727112;29;115108;-82
2023/03/29 03:24:42;;;;;;;16.77;8.85;;;-1.30;55.50;;;;;;4739623;29;114586;-82
2023/03/29 03:27:10;;;;;;;15.95;8.65;;;-1.30;55.60;;;;;;4708974;29;114590;-82
2023/03/29 03:29:40;;;;;;;14.93;9.20;;;-1.40;55.80;;;;;;4722736;29;115241;-83
2023/03/29 03:32:07;;;;;;;14.98;8.40;;;-1.40;55.70;;;;;;4737024;29;115090;-83
2023/03/29 03:34:54;;;;;;;14.55;8.43;;;-1.40;55.60;;;;;;4739821;29;114731;-84
2023/03/29 03:37:24;;;;;;;16.83;9.10;;;-1.40;55.60;;;;;;4725828;29;114900;-84
2023/03/29 03:39:52;;;;;;;20.85;10.52;;;-1.40;55.60;;;;;;4735973;29;115754;-84
2023/03/29 03:42:20;;;;;;;21.63;10.52;;;-1.40;55.60;;;;;;4707863;29;118090;-84
2023/03/29 03:44:48;;;;;;;18.10;8.82;;;-1.30;55.70;;;;;;4744338;29;114449;-81
2023/03/29 03:47:38;;;;;;;16.45;8.80;;;-1.30;55.50;;;;;;4731487;29;119639;-81
2023/03/29 03:50:18;;;;;;;18.50;9.25;;;-1.40;55.50;;;;;;4710683;29;115223;-82
2023/03/29 03:52:46;;;;;;;20.02;9.32;;;-1.40;55.40;;;;;;4722242;29;115179;-82
2023/03/29 03:55:15;;;;;;;22.83;10.32;;;-1.40;55.30;;;;;;4712288;29;115000;-82
2023/03/29 03:58:02;;;;;;;16.58;9.43;;;-1.40;55.20;;;;;;4722511;29;114754;-83
2023/03/29 04:00:32;;;;;;;16.58;8.48;;;-1.50;55.20;;;;;;4692625;29;118084;-81
2023/03/29 04:03:17;;;;;;;16.40;8.50;;;-1.40;55.20;;;;;;4726538;29;114987;-82
2023/03/29 04:05:45;;;;;;;15.27;8.85;;;-1.60;55.30;;;;;;4721533;29;115414;-81
2023/03/29 04:08:14;;;;;;;15.57;8.27;;;-1.50;55.20;;;;;;4742494;29;114519;-84
2023/03/29 04:11:03;;;;;;;14.98;7.50;;;-1.50;55.20;;;;;;4721958;29;119066;-83
2023/03/29 04:13:36;;;;;;;14.75;7.15;;;-1.60;55.20;;;;;;4718400;29;115512;-83
2023/03/29 04:16:39;;;;;;;16.77;7.80;;;-1.60;55.40;;;;;;4675791;29;114948;-81
2023/03/29 04:19:35;;;;;;;16.27;7.00;;;-1.60;55.10;;;;;;4729153;29;114730;-84
2023/03/29 04:22:02;;;;;;;12.45;6.68;;;-1.60;55.00;;;;;;4733896;29;115295;-83
2023/03/29 04:24:30;;;;;;;11.68;6.68;;;-1.60;54.90;;;;;;4725549;29;118347;-85
2023/03/29 04:27:16;;;;;;;14.10;7.32;;;-1.60;54.80;;;;;;4740491;29;114715;-84
2023/03/29 04:29:44;;;;;;;11.10;6.30;;;-1.70;54.80;;;;;;4725919;29;114562;-84
2023/03/29 04:32:46;;;;;;;10.35;6.50;;;-1.70;54.80;;;;;;4727201;29;116178;-83
2023/03/29 04:35:13;;;;;;;12.48;7.07;;;-1.80;54.70;;;;;;4723114;29;114705;-82
2023/03/29 04:37:40;;;;;;;14.32;7.55;;;-1.80;54.70;;;;;;4707437;29;115966;-84
2023/03/29 04:40:13;;;;;;;15.60;8.10;;;-1.90;54.50;;;;;;4734426;29;116238;-83
2023/03/29 04:42:58;;;;;;;15.38;7.07;;;-1.90;54.60;;;;;;4733668;29;115778;-83
2023/03/29 04:45:26;;;;;;;14.90;7.05;;;-2.00;54.70;;;;;;4718045;29;115258;-84
2023/03/29 04:48:26;;;;;;;14.43;7.28;;;-2.00;54.70;;;;;;4713124;29;114709;-83
2023/03/29 04:50:53;;;;;;;15.13;7.65;;;-2.00;54.80;;;;;;4710954;29;119198;-83
2023/03/29 04:53:21;;;;;;;17.38;7.82;;;-2.10;54.80;;;;;;4736020;29;117324;-81
2023/03/29 04:55:49;;;;;;;15.75;7.53;;;-2.00;54.90;;;;;;4738214;29;114898;-82
2023/03/29 04:58:31;;;;;;;12.18;7.10;;;-1.90;54.80;;;;;;4723520;29;114590;-82
2023/03/29 05:01:00;;;;;;;14.32;7.25;;;-1.90;54.80;;;;;;4710222;29;114905;-83
2023/03/29 05:03:34;;;;;;;14.18;7.40;;;-1.70;54.70;;;;;;4722046;29;117504;-81
2023/03/29 05:06:34;;;;;;;16.52;7.55;;;-1.50;54.60;;;;;;4724742;29;115916;-82
2023/03/29 05:09:01;;;;;;;14.13;7.32;;;-1.40;54.40;;;;;;4726377;29;114706;-82
2023/03/29 05:11:37;;;;;;;13.25;7.63;;;-1.20;54.40;;;;;;4710012;29;114694;-82
2023/03/29 05:14:06;;;;;;;13.15;7.43;;;-0.90;54.10;;;;;;4707658;29;115609;-82
2023/03/29 05:16:34;;;;;;;12.88;7.20;;;-0.70;53.90;;;;;;4708084;29;114608;-82
2023/03/29 05:19:01;;;;;;;13.75;7.60;;;-0.50;53.40;;;;;;4709508;29;114716;-82
2023/03/29 05:21:32;;;;;;;12.85;7.30;;;-0.30;53.10;;;;;;4716514;29;116774;-82
2023/03/29 05:24:11;;;;;;;12.50;6.57;;;-0.20;52.90;;;;;;4703248;29;117645;-83
2023/03/29 05:26:39;;;;;;;13.77;7.07;;;0.10;52.30;;;;;;4727056;29;115046;-82
2023/03/29 05:29:07;;;;;;;11.80;7.90;;;0.20;52.20;;;;;;4701256;29;114661;-83
2023/03/29 05:31:38;;;;;;;13.68;6.57;;;0.50;52.20;;;;;;4700334;29;114614;-83
2023/03/29 05:34:07;;;;;;;11.60;6.95;;;0.70;51.80;;;;;;4728970;29;115483;-83
2023/03/29 05:36:41;;;;;;;11.38;7.03;;;1.00;51.70;;;;;;4715903;29;114764;-83
2023/03/29 05:39:09;;;;;;;15.30;7.65;;;1.20;51.50;;;;;;4719690;29;114493;-83
2023/03/29 05:41:38;;;;;;;11.80;7.28;;;1.50;51.00;;;;;;4722000;29;114600;-82
2023/03/29 05:44:31;;;;;;;13.35;7.45;;;1.70;50.60;;;;;;4707278;29;117481;-83
2023/03/29 05:47:09;;;;;;;12.77;7.18;;;1.90;50.40;;;;;;4734699;29;117034;-83
2023/03/29 05:49:36;;;;;;;13.18;7.57;;;2.10;50.00;;;;;;4690488;29;114705;-83
2023/03/29 05:52:11;;;;;;;12.13;7.60;;;2.40;49.40;;;;;;4722974;29;114569;-83
2023/03/29 05:54:40;;;;;;;11.68;7.28;;;2.50;48.80;;;;;;4708299;29;115302;-84
2023/03/29 05:57:10;;;;;;;12.38;7.60;;;2.70;48.40;;;;;;4717153;29;118517;-83
2023/03/29 05:59:39;;;;;;;14.20;6.90;;;2.80;47.90;;;;;;4724898;29;114494;-83
2023/03/29 06:02:09;;;;;;;14.75;8.60;;;3.00;48.00;;;;;;4725059;29;115109;-84
2023/03/29 06:04:41;;;;;;;13.60;7.38;;;3.10;47.70;;;;;;4733831;29;115263;-84
2023/03/29 06:07:24;;;;;;;14.00;7.53;;;3.10;47.50;;;;;;4747597;29;114963;-83
2023/03/29 06:10:10;;;;;;;11.82;7.82;;;3.30;47.10;;;;;;4727930;29;114680;-84
2023/03/29 06:12:45;;;;;;;14.23;8.70;;;3.40;46.80;;;;;;4711772;29;114988;-84
2023/03/29 06:15:14;;;;;;;13.95;8.20;;;3.50;46.40;;;;;;4705219;29;115808;-84
2023/03/29 06:18:04;;;;;;;13.30;7.50;;;3.70;46.00;;;;;;4719335;29;114847;-83
2023/03/29 06:20:34;;;;;;;13.73;7.75;;;3.80;45.90;;;;;;4706704;29;114621;-83
2023/03/29 06:23:08;;;;;;;15.30;7.22;;;4.00;45.90;;;;;;4707061;29;115139;-85
2023/03/29 06:25:36;;;;;;;12.30;7.00;;;4.10;45.00;;;;;;4704635;29;115885;-85
2023/03/29 06:28:05;;;;;;;12.82;7.47;;;4.20;44.50;;;;;;4734501;29;115554;-84
2023/03/29 06:30:33;;;;;;;10.75;7.00;;;4.40;43.90;;;;;;4702750;29;115035;-82
2023/03/29 06:33:01;;;;;;;14.73;8.23;;;4.50;44.00;;;;;;4713953;29;114645;-83
2023/03/29 06:35:55;;;;;;;15.05;8.32;;;4.60;43.40;;;;;;4707920;29;117197;-84
2023/03/29 06:38:27;;;;;;;16.00;8.60;;;4.70;43.60;;;;;;4720073;29;114762;-84
2023/03/29 06:41:05;;;;;;;14.63;8.18;;;4.90;43.20;;;;;;4691482;29;115225;-84
2023/03/29 06:43:57;;;;;;;14.32;7.63;;;5.10;42.80;;;;;;4719921;29;115167;-84
2023/03/29 06:46:31;;;;;;;14.50;7.90;;;5.20;42.30;;;;;;4721862;29;115238;-85
2023/03/29 06:49:05;;;;;;;14.63;8.00;;;5.20;41.60;;;;;;4735756;29;114730;-83
2023/03/29 06:51:59;;;;;;;14.00;8.47;;;5.00;41.60;;;;;;4723940;29;116994;-85
2023/03/29 06:54:29;;;;;;;15.88;8.95;;;4.90;41.90;;;;;;4720274;29;114642;-84
2023/03/29 06:57:11;;;;;;;18.55;9.25;;;4.80;41.70;;;;;;4720066;29;115335;-84
2023/03/29 06:59:41;;;;;;;13.48;7.90;;;4.70;41.70;;;;;;4693097;29;117306;-84
2023/03/29 07:02:30;;;;;;;15.27;8.73;;;4.70;41.80;;;;;;4708845;29;116251;-86
2023/03/29 07:05:10;;;;;;;14.35;8.55;;;4.70;41.90;;;;;;4737317;29;114566;-83
2023/03/29 07:07:58;;;;;;;12.65;7.55;;;4.80;41.50;;;;;;4725423;29;114789;-83
2023/03/29 07:10:38;;;;;;;12.57;7.90;;;4.90;41.70;;;;;;4716955;29;117295;-84
2023/03/29 07:13:26;;;;;;;14.68;7.50;;;5.10;41.40;;;;;;4719826;29;115842;-83
2023/03/29 07:15:57;;;;;;;13.93;7.95;;;5.10;40.90;;;;;;4677526;29;114535;-82
2023/03/29 07:18:57;;;;;;;13.20;7.90;;;5.10;40.70;;;;;;4722161;29;116685;-84
2023/03/29 07:21:48;;;;;;;16.92;8.05;;;5.10;40.90;;;;;;4711384;29;117304;-84
2023/03/29 07:24:20;;;;;;;12.63;7.43;;;5.20;40.50;;;;;;4705258;29;114536;-84
2023/03/29 07:26:54;;;;;;;12.35;6.55;;;5.20;40.70;;;;;;4719444;29;114636;-84
2023/03/29 07:29:31;;;;;;;16.40;6.97;;;5.20;40.40;;;;;;4688619;29;115140;-84
2023/03/29 07:31:59;;;;;;;10.20;6.07;;;5.30;40.00;;;;;;4707013;29;114922;-84
2023/03/29 07:34:42;;;;;;;12.20;6.32;;;5.20;39.80;;;;;;4719560;29;114836;-85
2023/03/29 07:37:23;;;;;;;14.88;6.80;;;5.30;40.20;;;;;;4713755;29;114657;-84
2023/03/29 07:39:52;;;;;;;10.45;6.65;;;5.50;40.30;;;;;;4709084;29;115707;-85
2023/03/29 07:42:55;;;;;;;10.93;6.35;;;5.60;39.70;;;;;;4722174;29;117562;-83
2023/03/29 07:46:02;;;;;;;9.57;5.07;;;5.60;39.50;;;;;;4641588;30;114890;-84
2023/03/29 07:48:43;;;;;;;12.10;6.53;;;5.70;39.40;;;;;;4648120;30;114853;-83
2023/03/29 07:51:21;;;;;;;15.45;5.75;;;5.70;39.30;;;;;;4659134;30;115517;-84
2023/03/29 07:53:56;;;;;;;8.82;5.50;;;5.70;39.40;;;;;;4633701;30;117790;-83
2023/03/29 07:56:46;;;;;;;8.05;4.72;;;5.90;39.00;;;;;;4649550;30;116243;-83
2023/03/29 07:59:35;;;;;;;9.52;5.25;;;6.00;38.80;;;;;;4624331;30;119202;-84
2023/03/29 08:02:22;;;;;;;10.15;5.13;;;6.20;38.70;;;;;;4663633;30;117490;-83
2023/03/29 08:04:53;;;;;;;10.15;4.70;;;6.40;38.20;;;;;;4622149;30;115019;-84
2023/03/29 08:07:29;;;;;;;13.82;5.20;;;6.60;37.50;;;;;;4649483;30;114946;-84
2023/03/29 08:10:18;;;;;;;11.45;4.85;;;6.70;37.60;;;;;;4626387;30;116172;-83
2023/03/29 08:13:06;;;;;;;9.52;4.90;;;6.70;37.70;;;;;;4632401;30;115410;-85
2023/03/29 08:15:49;;;;;;;8.73;4.47;;;6.80;37.80;;;;;;4646161;30;115703;-84
2023/03/29 08:18:36;;;;;;;14.90;5.10;;;7.00;37.30;;;;;;4653819;30;114968;-84
2023/03/29 08:21:05;;;;;;;9.60;4.80;;;7.20;37.60;;;;;;4670934;30;114716;-84
2023/03/29 08:23:32;;;;;;;9.75;5.20;;;7.30;37.60;;;;;;4657702;29;123553;-84
2023/03/29 08:26:19;;;;;;;9.18;5.45;;;7.50;37.30;;;;;;4711891;29;116138;-83
2023/03/29 08:28:48;;;;;;;9.77;5.03;;;7.70;37.20;;;;;;4712693;29;114693;-84
2023/03/29 08:31:19;;;;;;;18.40;6.50;;;7.80;36.70;;;;;;4733808;29;117785;-83
2023/03/29 08:33:47;;;;;;;23.08;11.73;;;7.80;36.60;;;;;;4719132;29;115699;-85
2023/03/29 08:36:33;;;;;;;46.88;21.30;;;7.80;36.30;;;;;;4722584;29;117411;-84
2023/03/29 08:39:09;;;;;;;20.55;12.32;;;7.90;36.50;;;;;;4724419;29;114701;-85
2023/03/29 08:41:56;;;;;;;14.18;7.72;;;7.90;35.80;;;;;;4738441;29;114982;-85
2023/03/29 08:44:53;;;;;;;12.40;5.97;;;8.00;36.10;;;;;;4732846;29;115459;-84
2023/03/29 08:47:52;;;;;;;14.57;7.43;;;8.00;36.30;;;;;;4742138;29;118584;-85
2023/03/29 08:50:30;;;;;;;12.02;5.57;;;8.10;35.60;;;;;;4702646;29;114759;-85
2023/03/29 08:53:01;;;;;;;15.38;7.38;;;8.20;36.30;;;;;;4699247;29;114936;-84
2023/03/29 08:55:57;;;;;;;13.60;7.28;;;8.20;35.30;;;;;;4709171;29;115939;-85
2023/03/29 08:58:46;;;;;;;13.65;8.10;;;8.10;35.60;;;;;;4729115;29;115426;-85
2023/03/29 09:01:14;;;;;;;16.80;9.27;;;8.20;35.70;;;;;;4724994;29;114889;-85
2023/03/29 09:04:19;;;;;;;26.27;11.82;;;8.20;35.50;;;;;;4724652;29;118037;-84
2023/03/29 09:07:02;;;;;;;12.02;6.65;;;8.10;35.30;;;;;;4736790;29;115243;-86
2023/03/29 09:09:37;;;;;;;12.70;6.32;;;8.10;36.20;;;;;;4698927;29;115114;-84
2023/03/29 09:12:40;;;;;;;20.00;9.90;;;8.20;35.70;;;;;;4736435;29;114556;-83
2023/03/29 09:15:26;;;;;;;18.45;8.38;;;8.40;35.30;;;;;;4705642;29;117396;-84
2023/03/29 09:18:33;;;;;;;11.13;6.50;;;8.50;35.60;;;;;;4722868;29;116187;-84
2023/03/29 09:21:25;;;;;;;6.80;4.00;;;8.50;35.00;;;;;;4720564;29;115145;-83
2023/03/29 09:24:17;;;;;;;9.63;5.80;;;8.60;34.90;;;;;;4692209;29;114874;-84
2023/03/29 09:27:25;;;;;;;11.40;6.55;;;8.60;34.90;;;;;;4710618;29;114654;-84
2023/03/29 09:30:17;;;;;;;11.07;5.32;;;8.70;34.90;;;;;;4723846;29;114782;-84
2023/03/29 09:33:08;;;;;;;17.50;8.82;;;8.70;35.40;;;;;;4738261;29;114907;-84
2023/03/29 09:36:16;;;;;;;8.45;4.30;;;8.70;34.40;;;;;;4738507;29;115922;-84
2023/03/29 09:38:48;;;;;;;5.25;3.05;;;8.80;34.20;;;;;;4708843;29;114985;-84
2023/03/29 09:41:30;;;;;;;6.07;2.47;;;8.80;34.20;;;;;;4712800;29;115425;-84
2023/03/29 09:44:08;;;;;;;5.40;2.22;;;8.80;34.00;;;;;;4720587;29;114927;-84
2023/03/29 09:47:34;;;;;;;5.10;2.75;;;8.80;34.10;;;;;;4694754;29;115035;-84
2023/03/29 09:50:23;;;;;;;5.05;2.50;;;8.90;34.70;;;;;;4690333;29;114857;-84
2023/03/29 09:53:00;;;;;;;5.63;2.67;;;9.00;34.10;;;;;;4676098;29;118309;-84
2023/03/29 09:55:32;;;;;;;4.22;2.47;;;8.90;34.50;;;;;;4702676;29;115324;-85
2023/03/29 09:58:33;;;;;;;5.20;2.38;;;8.90;34.00;;;;;;4707013;29;114589;-84
2023/03/29 10:01:04;;;;;;;6.88;2.80;;;8.90;34.40;;;;;;4692308;29;114682;-84
2023/03/29 10:03:38;;;;;;;4.93;3.30;;;8.90;34.60;;;;;;4720021;29;117767;-83
2023/03/29 10:06:44;;;;;;;5.75;3.55;;;8.90;34.00;;;;;;4692683;29;115925;-84
2023/03/29 10:09:16;;;;;;;6.32;2.78;;;8.90;34.30;;;;;;4709128;29;114769;-85
2023/03/29 10:11:48;;;;;;;4.45;2.30;;;9.00;34.50;;;;;;4691867;29;114794;-84
2023/03/29 10:14:40;;;;;;;6.53;2.65;;;9.00;33.60;;;;;;4704795;29;118935;-84
2023/03/29 10:17:23;;;;;;;4.55;2.20;;;8.90;33.50;;;;;;4707597;29;120659;-85
2023/03/29 10:20:00;;;;;;;;;;;8.80;33.50;;;;;;4706334;29;114639;-84
2023/03/29 10:22:36;;;;;;;5.25;2.42;;;8.70;35.10;;;;;;4735492;29;114886;-85
2023/03/29 10:25:12;;;;;;;8.27;2.60;;;8.70;34.50;;;;;;4706075;29;116349;-84
2023/03/29 10:27:41;;;;;;;8.20;3.38;;;8.80;34.40;;;;;;4692079;29;120507;-84
2023/03/29 10:30:12;;;;;;;5.45;2.47;;;8.90;34.60;;;;;;4714460;29;114575;-83
2023/03/29 10:32:39;;;;;;;6.57;2.67;;;9.00;34.50;;;;;;4698369;29;114659;-84
2023/03/29 10:35:22;;;;;;;6.45;4.10;;;9.10;34.70;;;;;;4727712;29;115101;-82
2023/03/29 10:37:51;;;;;;;12.55;6.13;;;9.10;34.00;;;;;;4729640;29;114966;-84
2023/03/29 10:40:31;;;;;;;7.47;3.00;;;9.20;34.40;;;;;;4695773;29;114870;-83
2023/03/29 10:43:16;;;;;;;8.77;3.35;;;9.20;33.80;;;;;;4702627;29;114919;-84
2023/03/29 10:45:56;;;;;;;6.82;3.92;;;9.20;34.10;;;;;;4718186;29;115262;-83
2023/03/29 10:48:27;;;;;;;8.55;4.38;;;9.20;34.20;;;;;;4737540;29;114782;-83
2023/03/29 10:50:58;;;;;;;7.80;3.28;;;9.40;34.70;;;;;;4737546;29;115031;-83
2023/03/29 10:53:31;;;;;;;4.78;2.40;;;9.40;34.10;;;;;;4723226;29;114664;-84
2023/03/29 10:56:17;;;;;;;5.57;2.67;;;9.50;33.50;;;;;;4728057;29;116787;-82
2023/03/29 10:59:00;;;;;;;5.88;2.53;;;9.50;33.60;;;;;;4728595;29;115047;-83
2023/03/29 11:01:42;;;;;;;5.50;2.33;;;9.30;33.60;;;;;;4719318;29;114614;-83
2023/03/29 11:05:19;;;;;;;4.72;2.30;;;9.30;33.60;;;;;;4712046;29;115103;-83
2023/03/29 11:08:01;;;;;;;5.82;2.40;;;9.20;33.50;;;;;;4715648;29;115891;-84
2023/03/29 11:10:57;;;;;;;4.82;2.28;;;9.20;34.10;;;;;;4720003;29;114846;-83
2023/03/29 11:13:46;;;;;;;6.07;2.58;;;9.30;34.30;;;;;;4730911;29;114649;-85
2023/03/29 11:16:34;;;;;;;8.55;2.88;;;9.30;34.00;;;;;;4727944;29;115037;-84
2023/03/29 11:19:06;;;;;;;7.70;2.42;;;9.30;34.10;;;;;;4704095;29;115292;-84
2023/03/29 11:22:38;;;;;;;4.03;2.35;;;9.30;34.40;;;;;;4716950;29;115029;-83
2023/03/29 11:25:24;;;;;;;6.60;2.30;;;9.30;34.70;;;;;;4707939;29;115178;-85
2023/03/29 11:28:41;;;;;;;4.53;2.30;;;9.20;34.70;;;;;;4694791;29;114614;-85
2023/03/29 11:32:04;;;;;;;5.15;2.63;;;9.20;34.70;;;;;;4714640;29;117142;-84
2023/03/29 11:35:22;;;;;;;5.35;2.42;;;9.20;34.80;;;;;;4697539;29;115450;-83
2023/03/29 11:38:12;;;;;;;12.50;3.60;;;9.20;34.30;;;;;;4698449;29;115299;-83
2023/03/29 11:40:52;;;;;;;6.85;3.10;;;9.20;35.00;;;;;;4711148;29;114968;-84
2023/03/29 11:43:29;;;;;;;4.93;2.70;;;9.20;34.80;;;;;;4736972;29;116100;-85
2023/03/29 11:46:08;;;;;;;6.72;2.83;;;9.30;34.70;;;;;;4721044;29;118789;-85
2023/03/29 11:48:50;;;;;;;8.10;2.70;;;9.40;35.10;;;;;;4692895;29;114672;-84
2023/03/29 11:51:47;;;;;;;5.57;2.72;;;9.40;34.80;;;;;;4736893;29;116864;-83
2023/03/29 11:54:51;;;;;;;4.63;2.65;;;9.60;34.90;;;;;;4718884;29;115236;-84
2023/03/29 11:57:39;;;;;;;6.22;2.85;;;9.60;34.60;;;;;;4711849;29;114750;-83
2023/03/29 12:00:31;;;;;;;5.97;3.28;;;9.60;34.40;;;;;;4717170;29;115041;-83
2023/03/29 12:03:20;;;;;;;5.15;2.60;;;9.60;35.00;;;;;;4735175;29;114554;-85
2023/03/29 12:06:15;;;;;;;5.53;2.30;;;9.70;34.90;;;;;;4710437;29;117239;-84
2023/03/29 12:09:23;;;;;;;7.10;2.47;;;9.70;34.80;;;;;;4720053;29;114948;-85
2023/03/29 12:12:08;;;;;;;5.25;2.40;;;9.80;34.70;;;;;;4707166;29;114762;-84
2023/03/29 12:14:43;;;;;;;4.75;2.30;;;9.80;34.30;;;;;;4717075;29;114902;-83
2023/03/29 12:17:18;;;;;;;5.38;2.50;;;9.80;34.10;;;;;;4733113;29;114443;-83
2023/03/29 12:20:26;;;;;;;6.10;2.10;;;9.90;34.30;;;;;;4728521;29;114740;-85
2023/03/29 12:22:56;;;;;;;5.07;2.55;;;10.00;34.20;;;;;;4693644;29;115065;-84
2023/03/29 12:25:29;;;;;;;4.75;2.10;;;9.90;34.20;;;;;;4707162;29;114848;-84
2023/03/29 12:28:06;;;;;;;4.88;2.20;;;9.90;33.80;;;;;;4711605;29;116559;-84
2023/03/29 12:31:22;;;;;;;5.10;2.17;;;9.90;33.70;;;;;;4736105;29;114905;-84
2023/03/29 12:34:40;;;;;;;7.15;2.50;;;9.90;33.50;;;;;;4731690;29;114647;-84
2023/03/29 12:37:39;;;;;;;4.78;2.30;;;9.90;33.60;;;;;;4721871;29;114465;-83
2023/03/29 12:40:26;;;;;;;4.32;2.17;;;9.80;33.00;;;;;;4712970;29;115383;-84
2023/03/29 12:43:30;;;;;;;4.65;2.45;;;9.70;33.60;;;;;;4706100;29;117967;-82
2023/03/29 12:46:25;;;;;;;5.55;2.10;;;9.90;33.70;;;;;;4716569;29;114790;-83
2023/03/29 12:49:04;;;;;;;3.78;1.92;;;9.80;32.80;;;;;;4693777;29;114869;-84
2023/03/29 12:51:32;;;;;;;8.23;2.25;;;9.80;32.90;;;;;;4735044;29;116698;-84
2023/03/29 12:54:12;;;;;;;5.70;2.30;;;9.80;32.70;;;;;;4724653;29;115414;-84
2023/03/29 12:57:01;;;;;;;4.43;2.00;;;9.70;32.50;;;;;;4724758;29;114933;-84
2023/03/29 12:59:44;;;;;;;5.70;2.00;;;9.70;32.80;;;;;;4724558;29;114846;-84
2023/03/29 13:02:14;;;;;;;7.15;2.60;;;9.70;32.80;;;;;;4740250;29;115298;-84
2023/03/29 13:04:56;;;;;;;6.18;2.45;;;9.80;33.00;;;;;;4729879;29;114874;-85
2023/03/29 13:07:31;;;;;;;5.38;2.60;;;9.90;32.70;;;;;;4713724;29;114683;-84
2023/03/29 13:10:02;;;;;;;4.83;2.37;;;9.90;32.50;;;;;;4724478;29;116673;-84
2023/03/29 13:12:36;;;;;;;4.55;2.22;;;10.00;32.80;;;;;;4716227;29;115295;-83
2023/03/29 13:15:06;;;;;;;4.45;1.95;;;10.10;32.70;;;;;;4721291;29;114765;-84
2023/03/29 13:17:52;;;;;;;5.40;2.28;;;10.10;32.20;;;;;;4701891;29;114787;-85
2023/03/29 13:20:45;;;;;;;7.68;2.10;;;10.00;32.60;;;;;;4693959;29;119457;-83
2023/03/29 13:23:50;;;;;;;7.32;2.85;;;10.20;33.00;;;;;;4707376;29;115959;-84
2023/03/29 13:26:44;;;;;;;4.85;2.45;;;10.20;33.00;;;;;;4735811;29;116838;-84
2023/03/29 13:29:58;;;;;;;8.50;3.95;;;10.30;32.80;;;;;;4724051;29;114591;-84
2023/03/29 13:32:31;;;;;;;6.18;2.28;;;10.40;32.80;;;;;;4712129;29;114794;-84
2023/03/29 13:35:23;;;;;;;5.35;2.00;;;10.30;32.50;;;;;;4730990;29;117794;-84
2023/03/29 13:38:07;;;;;;;4.47;2.00;;;10.30;32.10;;;;;;4725071;29;114778;-85